createdAt,value
2018-08-10T00:00:20.936Z,17.10
2018-08-10T00:02:48.845Z,17.00
2018-08-10T00:05:16.456Z,17.00
2018-08-10T00:07:44.040Z,17.00
2018-08-10T00:10:13.025Z,17.00
2018-08-10T00:12:40.817Z,17.00
2018-08-10T00:15:09.997Z,17.00
2018-08-10T00:17:38.254Z,17.00
2018-08-10T00:20:11.186Z,17.00
2018-08-10T00:22:38.865Z,17.10
2018-08-10T00:25:09.085Z,17.10
2018-08-10T00:27:36.773Z,17.10
2018-08-10T00:30:11.487Z,17.00
2018-08-10T00:32:39.225Z,17.10
2018-08-10T00:35:08.108Z,17.10
2018-08-10T00:37:35.752Z,17.10
2018-08-10T00:40:04.369Z,17.00
2018-08-10T00:42:32.048Z,16.90
2018-08-10T00:44:59.633Z,16.70
2018-08-10T00:47:29.335Z,16.70
2018-08-10T00:49:56.940Z,16.60
2018-08-10T00:52:24.560Z,16.50
2018-08-10T00:54:52.194Z,16.40
2018-08-10T00:57:19.812Z,16.30
2018-08-10T00:59:47.432Z,16.30
2018-08-10T01:02:15.057Z,16.20
2018-08-10T01:04:42.701Z,16.20
2018-08-10T01:07:10.324Z,16.20
2018-08-10T01:09:38.021Z,16.20
2018-08-10T01:12:05.769Z,16.20
2018-08-10T01:14:33.391Z,16.20
2018-08-10T01:17:01.010Z,16.20
2018-08-10T01:19:28.737Z,16.10
2018-08-10T01:21:56.294Z,16.10
2018-08-10T01:24:24.129Z,16.10
2018-08-10T01:26:51.732Z,16.10
2018-08-10T01:29:19.312Z,16.10
2018-08-10T01:31:46.929Z,16.20
2018-08-10T01:34:14.529Z,16.20
2018-08-10T01:36:42.149Z,16.10
2018-08-10T01:39:10.697Z,16.10
2018-08-10T01:41:38.492Z,16.10
2018-08-10T01:44:06.557Z,16.10
2018-08-10T01:46:34.181Z,16.00
2018-08-10T01:49:01.773Z,16.00
2018-08-10T01:51:29.397Z,16.00
2018-08-10T01:53:56.977Z,16.00
2018-08-10T01:56:24.837Z,15.90
2018-08-10T01:58:52.421Z,15.80
2018-08-10T02:01:20.037Z,15.90
2018-08-10T02:03:47.625Z,15.80
2018-08-10T02:06:15.241Z,15.90
2018-08-10T02:08:42.842Z,15.90
2018-08-10T02:11:10.435Z,15.80
2018-08-10T02:13:38.173Z,15.70
2018-08-10T02:16:05.852Z,15.70
2018-08-10T02:18:33.424Z,15.70
2018-08-10T02:21:01.010Z,15.70
2018-08-10T02:23:28.596Z,15.60
2018-08-10T02:25:56.236Z,15.60
2018-08-10T02:28:23.825Z,15.50
2018-08-10T02:30:51.409Z,15.60
2018-08-10T02:33:18.956Z,15.60
2018-08-10T02:35:46.521Z,15.60
2018-08-10T02:38:14.365Z,15.50
2018-08-10T02:40:41.921Z,15.50
2018-08-10T02:43:09.578Z,15.50
2018-08-10T02:45:37.100Z,15.50
2018-08-10T02:48:04.709Z,15.50
2018-08-10T02:50:32.273Z,15.40
2018-08-10T02:53:06.817Z,15.40
2018-08-10T02:55:34.317Z,15.40
2018-08-10T02:58:02.009Z,15.30
2018-08-10T03:00:29.541Z,15.30
2018-08-10T03:02:57.069Z,15.30
2018-08-10T03:05:24.636Z,15.20
2018-08-10T03:07:52.196Z,15.20
2018-08-10T03:10:19.711Z,15.20
2018-08-10T03:12:47.272Z,15.20
2018-08-10T03:15:15.936Z,15.10
2018-08-10T03:17:43.940Z,15.10
2018-08-10T03:20:11.640Z,15.00
2018-08-10T03:22:39.322Z,15.10
2018-08-10T03:25:07.900Z,15.00
2018-08-10T03:27:35.513Z,14.90
2018-08-10T03:30:03.722Z,15.00
2018-08-10T03:32:31.305Z,15.00
2018-08-10T03:34:58.857Z,15.00
2018-08-10T03:37:26.400Z,15.10
2018-08-10T03:39:53.998Z,15.10
2018-08-10T03:42:21.552Z,15.20
2018-08-10T03:44:49.121Z,15.10
2018-08-10T03:47:16.673Z,15.00
2018-08-10T03:49:44.251Z,15.00
2018-08-10T03:52:12.012Z,15.00
2018-08-10T03:54:40.293Z,15.10
2018-08-10T03:57:07.877Z,15.10
2018-08-10T03:59:35.477Z,15.10
2018-08-10T04:02:03.098Z,15.20
2018-08-10T04:04:30.657Z,15.10
2018-08-10T04:06:58.241Z,15.00
2018-08-10T04:09:26.024Z,15.00
2018-08-10T04:11:53.565Z,15.00
2018-08-10T04:14:21.169Z,15.00
2018-08-10T04:16:48.721Z,15.20
2018-08-10T04:19:16.269Z,15.30
2018-08-10T04:21:43.820Z,15.30
2018-08-10T04:24:11.420Z,15.40
2018-08-10T04:26:39.036Z,15.40
2018-08-10T04:29:07.201Z,15.40
2018-08-10T04:31:34.792Z,15.50
2018-08-10T04:34:02.309Z,15.50
2018-08-10T04:36:29.887Z,15.50
2018-08-10T04:38:57.426Z,15.50
2018-08-10T04:41:24.970Z,15.50
2018-08-10T04:43:52.512Z,15.50
2018-08-10T04:46:20.125Z,15.50
2018-08-10T04:48:47.674Z,15.60
2018-08-10T04:51:15.227Z,15.50
2018-08-10T04:53:42.768Z,15.40
2018-08-10T04:56:10.335Z,15.40
2018-08-10T04:58:37.941Z,15.30
2018-08-10T05:01:05.731Z,15.30
